createdAt,value
2018-08-24T00:01:02.906Z,6.27
2018-08-24T00:03:31.500Z,6.77
2018-08-24T00:06:00.094Z,6.20
2018-08-24T00:08:29.211Z,6.90
2018-08-24T00:10:57.805Z,7.10
2018-08-24T00:13:26.379Z,6.90
2018-08-24T00:15:55.149Z,7.70
2018-08-24T00:18:23.689Z,7.47
2018-08-24T00:20:52.217Z,7.30
2018-08-24T00:23:21.380Z,7.50
2018-08-24T00:25:49.912Z,8.07
2018-08-24T00:28:18.474Z,7.30
2018-08-24T00:30:46.973Z,8.10
2018-08-24T00:33:15.523Z,7.43
2018-08-24T00:35:44.047Z,7.03
2018-08-24T00:38:12.604Z,7.50
2018-08-24T00:40:41.128Z,7.17
2018-08-24T00:43:09.909Z,7.57
2018-08-24T00:45:38.411Z,7.67
2018-08-24T00:48:06.981Z,6.30
2018-08-24T00:50:35.499Z,6.10
2018-08-24T00:53:04.289Z,7.07
2018-08-24T00:55:32.813Z,7.27
2018-08-24T00:58:01.367Z,7.60
2018-08-24T01:00:35.139Z,6.73
2018-08-24T01:03:04.066Z,6.77
2018-08-24T01:05:32.607Z,5.73
2018-08-24T01:08:06.410Z,5.90
2018-08-24T01:10:35.346Z,5.83
2018-08-24T01:13:03.982Z,5.20
2018-08-24T01:15:43.682Z,5.07
2018-08-24T01:18:16.712Z,5.40
2018-08-24T01:20:50.373Z,5.63
2018-08-24T01:23:22.122Z,4.90
2018-08-24T01:25:50.637Z,5.67
2018-08-24T01:28:20.158Z,5.60
2018-08-24T01:30:48.743Z,6.10
2018-08-24T01:33:17.887Z,6.30
2018-08-24T01:35:47.152Z,5.07
2018-08-24T01:38:16.034Z,5.80
2018-08-24T01:40:44.585Z,5.70
2018-08-24T01:43:13.126Z,6.27
2018-08-24T01:45:41.658Z,7.07
2018-08-24T01:48:10.522Z,5.43
2018-08-24T01:50:39.088Z,6.00
2018-08-24T01:53:07.892Z,5.30
2018-08-24T01:55:36.918Z,6.50
2018-08-24T01:58:05.835Z,6.20
2018-08-24T02:00:34.784Z,5.90
2018-08-24T02:03:03.345Z,7.33
2018-08-24T02:05:32.365Z,6.80
2018-08-24T02:08:00.929Z,7.10
2018-08-24T02:10:29.882Z,8.30
2018-08-24T02:13:03.591Z,7.43
2018-08-24T02:15:32.132Z,7.73
2018-08-24T02:18:05.833Z,7.93
2018-08-24T02:20:39.886Z,7.90
2018-08-24T02:23:13.847Z,8.40
2018-08-24T02:25:43.646Z,8.43
2018-08-24T02:28:12.910Z,8.47
2018-08-24T02:30:41.862Z,7.50
2018-08-24T02:33:10.378Z,7.77
2018-08-24T02:35:38.907Z,7.77
2018-08-24T02:38:07.440Z,7.27
2018-08-24T02:40:36.030Z,6.50
2018-08-24T02:43:04.875Z,6.73
2018-08-24T02:45:33.452Z,6.20
2018-08-24T02:48:01.985Z,6.67
2018-08-24T02:50:30.541Z,7.13
2018-08-24T02:52:59.090Z,6.77
2018-08-24T02:55:27.633Z,7.20
2018-08-24T02:57:56.157Z,6.17
2018-08-24T03:00:24.950Z,7.13
2018-08-24T03:02:53.483Z,7.27
2018-08-24T03:05:22.212Z,6.53
2018-08-24T03:07:50.668Z,6.77
2018-08-24T03:10:19.232Z,5.80
2018-08-24T03:12:47.768Z,5.63
2018-08-24T03:15:17.267Z,5.30
2018-08-24T03:17:50.863Z,4.93
2018-08-24T03:20:19.464Z,4.50
2018-08-24T03:22:48.014Z,4.90
2018-08-24T03:25:16.914Z,4.20
2018-08-24T03:27:45.434Z,4.03
2018-08-24T03:30:13.966Z,4.47
2018-08-24T03:32:43.137Z,3.83
2018-08-24T03:35:11.692Z,4.07
2018-08-24T03:37:40.273Z,3.67
2018-08-24T03:40:08.850Z,3.70
2018-08-24T03:42:37.480Z,3.90
2018-08-24T03:45:06.081Z,3.80
2018-08-24T03:47:34.962Z,3.53
2018-08-24T03:50:03.564Z,3.53
2018-08-24T03:52:32.356Z,3.60
2018-08-24T03:55:00.887Z,3.40
2018-08-24T03:57:29.425Z,3.50
2018-08-24T03:59:57.988Z,4.07
2018-08-24T04:02:26.496Z,4.10
2018-08-24T04:04:55.031Z,4.00
2018-08-24T04:07:25.287Z,6.07
2018-08-24T04:09:54.140Z,9.77
2018-08-24T04:12:22.661Z,4.90
2018-08-24T04:14:51.208Z,9.83
2018-08-24T04:17:25.786Z,6.07
2018-08-24T04:19:54.753Z,10.70
2018-08-24T04:22:23.279Z,5.03
2018-08-24T04:24:52.093Z,5.17
2018-08-24T04:27:20.617Z,5.53
2018-08-24T04:29:49.690Z,6.83
2018-08-24T04:32:18.194Z,7.90
2018-08-24T04:34:46.805Z,5.43
2018-08-24T04:37:15.667Z,5.60
2018-08-24T04:39:44.213Z,8.50
2018-08-24T04:42:12.768Z,5.87
2018-08-24T04:44:41.318Z,5.10
2018-08-24T04:47:09.835Z,5.17
2018-08-24T04:49:38.335Z,5.40
2018-08-24T04:52:08.360Z,5.73
2018-08-24T04:54:36.902Z,7.10
2018-08-24T04:57:06.098Z,6.73
2018-08-24T04:59:34.672Z,7.43
2018-08-24T05:02:03.521Z,6.03
2018-08-24T05:04:32.060Z,6.30
2018-08-24T05:07:00.605Z,6.90
2018-08-24T05:09:29.124Z,6.70
2018-08-24T05:11:57.663Z,12.93
2018-08-24T05:14:26.625Z,7.10
2018-08-24T05:16:55.186Z,7.67
2018-08-24T05:19:23.709Z,7.80
2018-08-24T05:21:52.250Z,9.00
2018-08-24T05:24:20.783Z,7.60
2018-08-24T05:26:49.778Z,7.27
2018-08-24T05:29:18.306Z,8.23
2018-08-24T05:31:47.073Z,7.80
2018-08-24T05:34:15.601Z,8.83
2018-08-24T05:36:44.153Z,8.13
2018-08-24T05:39:12.678Z,20.63
2018-08-24T05:41:41.566Z,7.30
2018-08-24T05:44:10.498Z,7.40
2018-08-24T05:46:39.070Z,9.83
2018-08-24T05:49:07.910Z,18.53
2018-08-24T05:51:36.498Z,5.97
2018-08-24T05:54:05.049Z,12.03
2018-08-24T05:56:33.623Z,12.23
2018-08-24T05:59:03.062Z,3.63
2018-08-24T06:01:31.624Z,4.77
2018-08-24T06:04:00.160Z,8.87
2018-08-24T06:06:28.675Z,3.60
2018-08-24T06:09:03.761Z,2.73
2018-08-24T06:11:32.315Z,3.60
2018-08-24T06:14:00.826Z,4.23
2018-08-24T06:16:29.692Z,4.33
2018-08-24T06:18:58.209Z,6.13
2018-08-24T06:21:26.769Z,10.60
2018-08-24T06:23:55.382Z,8.40
2018-08-24T06:26:24.365Z,6.80
2018-08-24T06:28:52.900Z,6.17
2018-08-24T06:31:21.911Z,3.60
2018-08-24T06:33:50.427Z,4.33
2018-08-24T06:36:18.972Z,2.97
2018-08-24T06:38:47.491Z,3.87
2018-08-24T06:41:16.053Z,4.20
2018-08-24T06:43:45.374Z,1.73
2018-08-24T06:46:13.945Z,2.37
2018-08-24T06:48:42.457Z,4.73
2018-08-24T06:51:11.037Z,2.60
2018-08-24T06:53:39.612Z,2.00
2018-08-24T06:56:08.962Z,5.17
2018-08-24T06:58:37.489Z,7.70
2018-08-24T07:01:06.172Z,5.30
2018-08-24T07:03:34.709Z,4.97
2018-08-24T07:06:03.288Z,3.00
2018-08-24T07:08:32.035Z,2.23
2018-08-24T07:11:00.544Z,4.13
2018-08-24T07:13:29.124Z,6.87
2018-08-24T07:15:57.712Z,18.53
2018-08-24T07:18:26.242Z,4.07
2018-08-24T07:20:55.255Z,4.60
2018-08-24T07:23:23.832Z,4.43
2018-08-24T07:25:52.564Z,5.80
2018-08-24T07:28:21.357Z,6.33
2018-08-24T07:30:49.839Z,3.60
2018-08-24T07:33:18.786Z,4.10
2018-08-24T07:35:47.524Z,6.47
2018-08-24T07:38:16.082Z,7.27
2018-08-24T07:40:44.619Z,5.90
2018-08-24T07:43:13.197Z,2.93
2018-08-24T07:45:41.738Z,19.53
2018-08-24T07:48:10.285Z,8.37
2018-08-24T07:50:38.813Z,4.67
2018-08-24T07:53:07.811Z,3.07
2018-08-24T07:55:36.602Z,3.70
2018-08-24T07:58:05.473Z,3.30
2018-08-24T08:00:34.051Z,5.27
2018-08-24T08:03:02.599Z,2.83
2018-08-24T08:05:31.233Z,4.27
2018-08-24T08:08:00.686Z,3.40
2018-08-24T08:10:33.666Z,3.73
2018-08-24T08:13:02.961Z,4.83
2018-08-24T08:15:33.022Z,4.60
2018-08-24T08:18:01.593Z,6.17
2018-08-24T08:20:30.116Z,8.17
2018-08-24T08:22:58.952Z,6.37
2018-08-24T08:25:27.489Z,8.07
2018-08-24T08:27:56.058Z,5.90
2018-08-24T08:30:24.559Z,10.03
2018-08-24T08:32:53.249Z,13.13
2018-08-24T08:35:22.794Z,7.83
2018-08-24T08:37:52.152Z,8.63
2018-08-24T08:40:22.177Z,6.93
2018-08-24T08:42:51.435Z,7.47
2018-08-24T08:45:20.986Z,3.80
2018-08-24T08:47:49.507Z,4.43
2018-08-24T08:50:18.546Z,6.00
2018-08-24T08:52:48.663Z,4.10
2018-08-24T08:55:17.184Z,4.00
2018-08-24T08:57:46.617Z,4.00
2018-08-24T09:00:15.129Z,4.57
2018-08-24T09:02:47.516Z,4.40
2018-08-24T09:05:16.040Z,4.97
2018-08-24T09:07:46.780Z,7.43
2018-08-24T09:10:15.752Z,4.80
2018-08-24T09:12:44.624Z,4.90
2018-08-24T09:15:13.157Z,4.77
2018-08-24T09:17:47.628Z,5.10
2018-08-24T09:20:21.323Z,5.20
2018-08-24T09:22:55.285Z,11.40
2018-08-24T09:25:29.257Z,4.40
2018-08-24T09:28:03.273Z,7.57
2018-08-24T09:30:37.740Z,4.50
2018-08-24T09:33:06.312Z,8.70
2018-08-24T09:35:35.652Z,12.47
2018-08-24T09:38:05.611Z,6.40
2018-08-24T09:40:39.496Z,13.13
2018-08-24T09:43:13.154Z,5.43
2018-08-24T09:45:41.693Z,7.30
2018-08-24T09:48:16.603Z,7.03
2018-08-24T09:50:50.253Z,5.10
2018-08-24T09:53:24.297Z,5.80
2018-08-24T09:55:53.506Z,6.33
2018-08-24T09:58:23.150Z,6.00
2018-08-24T10:01:01.074Z,6.37
2018-08-24T10:03:34.945Z,5.80
2018-08-24T10:06:08.590Z,5.27
2018-08-24T10:08:42.660Z,6.10
2018-08-24T10:11:11.191Z,5.77
2018-08-24T10:13:39.765Z,6.17
2018-08-24T10:16:08.398Z,5.87
2018-08-24T10:18:37.213Z,6.03
2018-08-24T10:21:05.750Z,6.47
2018-08-24T10:23:34.838Z,9.60
2018-08-24T10:26:03.391Z,9.07
2018-08-24T10:28:32.136Z,6.37
2018-08-24T10:31:00.726Z,6.60
2018-08-24T10:33:29.259Z,8.63
2018-08-24T10:35:57.801Z,6.10
2018-08-24T10:38:26.452Z,6.90
2018-08-24T10:40:55.103Z,8.60
2018-08-24T10:43:23.552Z,6.30
2018-08-24T10:45:52.111Z,7.03
2018-08-24T10:48:20.646Z,6.07
2018-08-24T10:50:50.216Z,6.23
2018-08-24T10:53:18.731Z,5.67
2018-08-24T10:55:47.365Z,6.57
2018-08-24T10:58:15.828Z,5.77
2018-08-24T11:00:44.385Z,6.27
2018-08-24T11:03:13.329Z,5.80
2018-08-24T11:05:41.889Z,5.07
2018-08-24T11:08:10.401Z,5.77
2018-08-24T11:10:39.697Z,5.50
2018-08-24T11:13:08.516Z,6.00
2018-08-24T11:15:37.948Z,6.23
2018-08-24T11:18:08.753Z,5.50
2018-08-24T11:20:39.029Z,5.80
2018-08-24T11:23:08.099Z,5.77
2018-08-24T11:25:37.045Z,6.17
2018-08-24T11:28:06.490Z,5.97
2018-08-24T11:30:35.025Z,6.80
2018-08-24T11:33:03.572Z,6.00
2018-08-24T11:35:32.218Z,5.90
2018-08-24T11:38:01.934Z,6.20
2018-08-24T11:40:30.470Z,5.80
2018-08-24T11:43:00.782Z,5.60
2018-08-24T11:45:30.159Z,6.00
2018-08-24T11:47:58.939Z,5.33
2018-08-24T11:50:27.477Z,6.20
2018-08-24T11:52:56.059Z,6.07
2018-08-24T11:55:24.592Z,5.50
2018-08-24T11:57:53.149Z,8.53
2018-08-24T12:00:26.037Z,5.70
2018-08-24T12:02:56.139Z,5.33
2018-08-24T12:05:24.673Z,5.20
2018-08-24T12:07:53.265Z,5.70
2018-08-24T12:10:22.212Z,11.77
2018-08-24T12:12:50.783Z,7.47
2018-08-24T12:15:19.697Z,9.83
2018-08-24T12:17:48.285Z,6.70
2018-08-24T12:20:17.017Z,5.60
2018-08-24T12:22:45.888Z,4.40
2018-08-24T12:25:14.661Z,4.30
2018-08-24T12:27:43.239Z,4.17
2018-08-24T12:30:11.775Z,4.53
2018-08-24T12:32:41.110Z,4.27
2018-08-24T12:35:09.606Z,4.17
2018-08-24T12:37:43.406Z,3.93
2018-08-24T12:40:12.004Z,4.00
2018-08-24T12:42:41.300Z,4.50
2018-08-24T12:45:09.886Z,4.00
2018-08-24T12:47:38.672Z,4.00
2018-08-24T12:50:07.888Z,3.70
2018-08-24T12:52:37.254Z,4.30
2018-08-24T12:55:06.858Z,3.40
2018-08-24T12:57:36.059Z,3.37
2018-08-24T13:00:04.796Z,3.60
2018-08-24T13:02:33.312Z,4.10
2018-08-24T13:05:02.565Z,3.63
2018-08-24T13:07:31.936Z,3.80
2018-08-24T13:10:00.696Z,3.47
2018-08-24T13:12:29.223Z,3.50
2018-08-24T13:14:58.331Z,3.10
2018-08-24T13:17:26.969Z,3.47
2018-08-24T13:19:56.200Z,4.03
2018-08-24T13:22:24.758Z,3.50
2018-08-24T13:24:54.251Z,3.60
2018-08-24T13:27:23.685Z,3.50
2018-08-24T13:29:52.216Z,3.73
2018-08-24T13:32:20.841Z,3.33
2018-08-24T13:34:49.373Z,3.60
2018-08-24T13:37:18.549Z,3.57
2018-08-24T13:39:47.508Z,4.03
2018-08-24T13:42:16.913Z,4.00
2018-08-24T13:44:45.654Z,3.83
2018-08-24T13:47:14.223Z,3.73
2018-08-24T13:49:42.744Z,4.03
2018-08-24T13:52:11.557Z,4.10
2018-08-24T13:54:40.667Z,3.57
2018-08-24T13:57:09.815Z,3.83
2018-08-24T13:59:38.715Z,3.70
2018-08-24T14:02:07.273Z,3.40
2018-08-24T14:04:35.827Z,3.80
2018-08-24T14:07:04.605Z,3.80
2018-08-24T14:09:33.992Z,3.80
2018-08-24T14:12:02.886Z,3.80
2018-08-24T14:14:31.415Z,4.27
2018-08-24T14:16:59.962Z,4.60
2018-08-24T14:19:29.049Z,4.10
2018-08-24T14:21:57.599Z,3.90
2018-08-24T14:24:26.162Z,3.77
2018-08-24T14:26:55.193Z,4.10
2018-08-24T14:29:23.756Z,3.77
2018-08-24T14:31:53.295Z,3.70
2018-08-24T14:34:21.893Z,4.30
2018-08-24T14:36:50.782Z,4.33
2018-08-24T14:39:20.023Z,3.67
2018-08-24T14:41:48.527Z,4.20
2018-08-24T14:44:17.712Z,3.87
2018-08-24T14:46:47.125Z,3.60
2018-08-24T14:49:16.253Z,3.77
2018-08-24T14:51:46.431Z,3.57
2018-08-24T14:54:15.254Z,4.33
2018-08-24T14:56:43.812Z,3.80
2018-08-24T14:59:12.357Z,3.53
2018-08-24T15:01:40.899Z,3.40
2018-08-24T15:04:09.458Z,3.80
2018-08-24T15:06:38.510Z,3.40
2018-08-24T15:09:09.141Z,3.63
2018-08-24T15:11:38.137Z,3.20
2018-08-24T15:14:07.247Z,3.73
2018-08-24T15:16:36.676Z,3.00
2018-08-24T15:19:05.409Z,3.00
2018-08-24T15:21:34.688Z,3.10
2018-08-24T15:24:05.516Z,2.73
2018-08-24T15:26:34.174Z,2.87
2018-08-24T15:29:02.777Z,2.83
2018-08-24T15:31:36.921Z,2.50
2018-08-24T15:34:10.468Z,2.90
2018-08-24T15:36:43.733Z,2.13
2018-08-24T15:39:20.572Z,2.70
2018-08-24T15:41:54.140Z,2.50
2018-08-24T15:44:27.633Z,2.57
2018-08-24T15:46:58.419Z,3.17
2018-08-24T15:49:27.054Z,2.70
2018-08-24T15:51:55.701Z,2.80
2018-08-24T15:54:24.264Z,3.07
2018-08-24T15:56:52.803Z,2.90
2018-08-24T15:59:21.371Z,2.80
2018-08-24T16:01:49.889Z,2.83
2018-08-24T16:04:18.431Z,2.67
2018-08-24T16:06:47.364Z,2.53
2018-08-24T16:09:22.545Z,3.00
2018-08-24T16:11:55.153Z,2.87
2018-08-24T16:14:27.522Z,2.97
2018-08-24T16:16:56.030Z,3.20
2018-08-24T16:19:24.783Z,3.13
2018-08-24T16:21:59.714Z,2.90
2018-08-24T16:24:28.303Z,3.07
2018-08-24T16:26:56.807Z,2.83
2018-08-24T16:29:26.178Z,2.87
2018-08-24T16:31:55.402Z,2.93
2018-08-24T16:34:23.941Z,2.93
2018-08-24T16:36:52.545Z,2.60
2018-08-24T16:39:21.046Z,2.50
2018-08-24T16:41:50.835Z,2.57
2018-08-24T16:44:19.395Z,2.40
2018-08-24T16:46:47.978Z,2.30
2018-08-24T16:49:16.487Z,2.80
2018-08-24T16:51:44.986Z,2.50
2018-08-24T16:54:14.002Z,2.20
2018-08-24T16:56:43.365Z,2.60
2018-08-24T16:59:12.191Z,2.70
2018-08-24T17:01:40.815Z,2.60
2018-08-24T17:04:24.311Z,1.97
2018-08-24T17:06:53.603Z,2.30
2018-08-24T17:09:28.434Z,2.10
2018-08-24T17:11:57.345Z,2.10
2018-08-24T17:14:25.897Z,2.03
2018-08-24T17:16:54.416Z,1.77
2018-08-24T17:19:23.030Z,2.33
2018-08-24T17:21:51.826Z,2.20
2018-08-24T17:24:20.394Z,1.93
2018-08-24T17:26:48.978Z,2.10
2018-08-24T17:29:18.258Z,2.17
2018-08-24T17:31:47.014Z,3.00
2018-08-24T17:34:15.556Z,2.10
2018-08-24T17:36:44.084Z,1.60
2018-08-24T17:39:14.105Z,1.67
2018-08-24T17:41:42.629Z,1.60
2018-08-24T17:44:12.121Z,1.47
2018-08-24T17:46:41.053Z,1.60
2018-08-24T17:49:09.602Z,1.60
2018-08-24T17:51:38.278Z,1.70
2018-08-24T17:54:07.881Z,1.70
2018-08-24T17:56:36.444Z,1.73
2018-08-24T17:59:05.185Z,1.43
2018-08-24T18:01:35.514Z,1.33
2018-08-24T18:04:04.074Z,1.50
2018-08-24T18:06:33.090Z,1.40
2018-08-24T18:09:01.626Z,2.00
2018-08-24T18:11:30.427Z,2.23
2018-08-24T18:13:58.972Z,1.70
2018-08-24T18:16:27.753Z,1.47
2018-08-24T18:18:56.321Z,1.90
2018-08-24T18:21:25.606Z,1.60
2018-08-24T18:23:54.150Z,2.17
2018-08-24T18:26:22.729Z,2.10
2018-08-24T18:28:51.311Z,1.57
2018-08-24T18:31:20.612Z,2.07
2018-08-24T18:33:50.521Z,1.60
2018-08-24T18:36:20.214Z,1.67
2018-08-24T18:38:49.062Z,1.50
2018-08-24T18:41:17.608Z,1.70
2018-08-24T18:43:46.806Z,1.83
2018-08-24T18:46:15.348Z,1.93
2018-08-24T18:48:43.964Z,1.70
2018-08-24T18:51:12.782Z,1.70
2018-08-24T18:53:41.328Z,1.70
2018-08-24T18:56:10.476Z,1.60
2018-08-24T18:58:38.998Z,1.70
2018-08-24T19:01:08.534Z,1.63
2018-08-24T19:03:37.643Z,1.80
2018-08-24T19:06:06.216Z,1.70
2018-08-24T19:08:35.164Z,1.63
2018-08-24T19:11:09.445Z,1.80
2018-08-24T19:13:38.009Z,1.50
2018-08-24T19:16:07.009Z,1.87
2018-08-24T19:18:40.951Z,1.90
2018-08-24T19:21:15.122Z,1.80
2018-08-24T19:23:43.645Z,1.90
2018-08-24T19:26:13.325Z,1.53
2018-08-24T19:28:46.917Z,1.50
2018-08-24T19:31:15.748Z,1.70
2018-08-24T19:33:44.285Z,1.60
2018-08-24T19:36:12.877Z,1.60
2018-08-24T19:38:41.714Z,1.77
2018-08-24T19:41:15.656Z,1.83
2018-08-24T19:43:44.606Z,1.43
2018-08-24T19:46:13.450Z,1.57
2018-08-24T19:48:47.128Z,1.60
2018-08-24T19:51:17.020Z,1.60
2018-08-24T19:53:45.554Z,1.50
2018-08-24T19:56:14.425Z,1.37
2018-08-24T19:58:48.734Z,1.87
2018-08-24T20:01:17.290Z,1.80
2018-08-24T20:03:46.276Z,1.80
2018-08-24T20:06:20.243Z,1.90
2018-08-24T20:08:54.323Z,1.80
2018-08-24T20:11:23.031Z,1.47
2018-08-24T20:13:51.565Z,1.50
2018-08-24T20:16:25.399Z,1.70
2018-08-24T20:18:53.929Z,1.50
2018-08-24T20:21:22.781Z,2.00
2018-08-24T20:23:51.295Z,1.43
2018-08-24T20:26:20.612Z,1.37
2018-08-24T20:28:49.445Z,1.40
2018-08-24T20:31:18.569Z,1.40
2018-08-24T20:33:47.555Z,1.40
2018-08-24T20:36:16.090Z,1.50
2018-08-24T20:38:44.618Z,1.60
2018-08-24T20:41:13.400Z,1.70
2018-08-24T20:43:41.926Z,1.67
2018-08-24T20:46:10.475Z,1.60
2018-08-24T20:48:39.005Z,1.70
2018-08-24T20:51:08.067Z,1.57
2018-08-24T20:53:37.850Z,1.60
2018-08-24T20:56:06.865Z,1.50
2018-08-24T20:58:36.661Z,1.80
2018-08-24T21:01:05.940Z,2.07
2018-08-24T21:03:35.029Z,1.67
2018-08-24T21:06:04.765Z,1.70
2018-08-24T21:08:33.290Z,1.90
2018-08-24T21:11:01.834Z,1.67
2018-08-24T21:13:30.710Z,1.77
2018-08-24T21:16:00.253Z,1.83
2018-08-24T21:18:29.330Z,1.80
2018-08-24T21:20:58.611Z,2.30
2018-08-24T21:23:27.230Z,1.83
2018-08-24T21:25:56.003Z,2.10
2018-08-24T21:28:24.583Z,1.80
2018-08-24T21:30:53.545Z,1.77
2018-08-24T21:33:22.877Z,2.00
2018-08-24T21:35:51.423Z,1.90
2018-08-24T21:38:20.037Z,1.83
2018-08-24T21:40:49.603Z,1.67
2018-08-24T21:43:18.258Z,1.90
2018-08-24T21:45:46.808Z,1.87
2018-08-24T21:48:16.325Z,1.63
2018-08-24T21:50:45.292Z,1.80
2018-08-24T21:53:13.851Z,2.17
2018-08-24T21:55:42.766Z,1.80
2018-08-24T21:58:11.333Z,1.67
2018-08-24T22:00:41.527Z,1.80
2018-08-24T22:03:11.101Z,1.60
2018-08-24T22:05:39.977Z,1.63
2018-08-24T22:08:08.610Z,1.40
2018-08-24T22:10:37.929Z,1.90
2018-08-24T22:13:06.527Z,1.50
2018-08-24T22:15:35.506Z,1.80
2018-08-24T22:18:04.291Z,1.83
2018-08-24T22:20:32.820Z,2.20
2018-08-24T22:23:01.437Z,1.63
2018-08-24T22:25:29.965Z,1.97
2018-08-24T22:27:58.557Z,1.77
2018-08-24T22:30:27.521Z,1.80
2018-08-24T22:32:57.570Z,1.70
2018-08-24T22:35:26.112Z,1.67
2018-08-24T22:37:54.669Z,1.77
2018-08-24T22:40:23.218Z,1.70
2018-08-24T22:42:51.822Z,1.80
2018-08-24T22:45:21.116Z,2.23
2018-08-24T22:47:49.887Z,2.00
2018-08-24T22:50:18.387Z,1.87
2018-08-24T22:52:46.928Z,1.47
2018-08-24T22:55:16.450Z,1.73
2018-08-24T22:57:45.097Z,2.20
2018-08-24T23:00:13.869Z,1.87
2018-08-24T23:02:42.844Z,2.50
2018-08-24T23:05:11.710Z,1.70
2018-08-24T23:07:41.040Z,1.87
2018-08-24T23:10:10.832Z,2.00
2018-08-24T23:12:39.781Z,1.97
2018-08-24T23:15:09.152Z,1.90
2018-08-24T23:17:37.754Z,1.50
2018-08-24T23:20:06.367Z,1.90
2018-08-24T23:22:35.248Z,1.60
2018-08-24T23:25:04.069Z,1.63
2018-08-24T23:27:32.862Z,1.70
2018-08-24T23:30:01.402Z,1.50
2018-08-24T23:32:30.026Z,1.77
2018-08-24T23:34:59.689Z,1.87
2018-08-24T23:37:28.245Z,1.77
2018-08-24T23:39:56.765Z,1.80
2018-08-24T23:42:25.318Z,1.27
2018-08-24T23:44:53.851Z,1.37
2018-08-24T23:47:23.587Z,1.60
2018-08-24T23:49:52.556Z,1.60
2018-08-24T23:52:21.325Z,1.80
2018-08-24T23:54:49.921Z,1.43
2018-08-24T23:57:18.941Z,1.70
2018-08-24T23:59:48.137Z,1.60
